Terminal Aerodrome Forecast
Issued by NWS Cleveland, OH

Home | Current Version | Previous Version | Graphics & Text | Print | Product List | Glossary Off
Versions: 1 2 3 4 5 6 7 8 9 10 11 12 13

000
FTUS41 KCLE 280537
TAFMFD
TAF
KMFD 280537Z 2806/2906 05003KT P6SM SKC
      TEMPO 2810/2813 5SM BR
     FM281700 15004KT P6SM BKN040
     FM290000 15004KT P6SM FEW040 BKN150=

USA.gov is the U.S. government's official web portal to all federal, state and local government web resources and services.